createdAt,value
2018-05-29T00:01:46.365Z,13.43
2018-05-29T00:04:48.809Z,14.00
2018-05-29T00:07:51.277Z,12.73
2018-05-29T00:10:53.739Z,14.00
2018-05-29T00:13:56.198Z,12.70
2018-05-29T00:16:58.666Z,12.80
2018-05-29T00:20:01.133Z,13.20
2018-05-29T00:23:03.586Z,12.50
2018-05-29T00:26:06.817Z,12.67
2018-05-29T00:29:09.278Z,12.73
2018-05-29T00:32:11.737Z,13.03
2018-05-29T00:35:14.953Z,12.97
2018-05-29T00:38:17.418Z,12.17
2018-05-29T00:41:34.967Z,13.30
2018-05-29T00:44:37.413Z,11.80
2018-05-29T00:47:40.642Z,12.77
2018-05-29T00:50:43.102Z,11.93
2018-05-29T00:53:45.565Z,12.57
2018-05-29T00:56:48.797Z,11.73
2018-05-29T00:59:51.249Z,12.40
2018-05-29T01:02:53.713Z,12.97
2018-05-29T01:05:56.178Z,13.10
2018-05-29T01:08:59.410Z,13.20
2018-05-29T01:12:01.877Z,12.83
2018-05-29T01:15:04.337Z,12.13
2018-05-29T01:18:07.565Z,12.43
2018-05-29T01:21:10.034Z,12.73
2018-05-29T01:24:12.509Z,12.60
2018-05-29T01:27:14.990Z,12.80
2018-05-29T01:30:17.455Z,12.50
2018-05-29T01:33:19.929Z,12.53
2018-05-29T01:36:22.382Z,13.13
2018-05-29T01:39:25.618Z,12.27
2018-05-29T01:42:28.087Z,12.50
2018-05-29T01:45:30.530Z,12.13
2018-05-29T01:48:33.770Z,12.13
2018-05-29T01:51:36.237Z,12.33
2018-05-29T01:54:38.713Z,12.70
2018-05-29T01:57:41.162Z,13.00
2018-05-29T02:00:44.389Z,13.03
2018-05-29T02:03:46.841Z,12.93
2018-05-29T02:06:49.293Z,16.17
2018-05-29T02:09:52.510Z,13.07
2018-05-29T02:12:54.970Z,12.90
2018-05-29T02:15:58.202Z,13.07
2018-05-29T02:19:00.663Z,13.70
2018-05-29T02:22:03.126Z,13.73
2018-05-29T02:25:06.342Z,13.57
2018-05-29T02:28:08.798Z,13.93
2018-05-29T02:31:11.255Z,13.13
2018-05-29T02:34:13.709Z,13.97
2018-05-29T02:37:16.194Z,14.17
2018-05-29T02:40:18.638Z,15.03
2018-05-29T02:43:21.093Z,14.37
2018-05-29T02:46:23.548Z,14.40
2018-05-29T02:49:26.778Z,14.20
2018-05-29T02:52:29.250Z,13.80
2018-05-29T02:55:31.706Z,14.37
2018-05-29T02:58:34.944Z,14.63
2018-05-29T03:01:37.390Z,15.43
2018-05-29T03:04:39.841Z,13.87
2018-05-29T03:07:43.081Z,15.13
2018-05-29T03:10:45.533Z,15.30
2018-05-29T03:13:48.757Z,15.10
2018-05-29T03:16:51.223Z,14.67
2018-05-29T03:19:53.705Z,14.20
2018-05-29T03:22:56.961Z,14.83
2018-05-29T03:26:00.214Z,15.17
2018-05-29T03:29:02.695Z,14.97
2018-05-29T03:32:05.172Z,15.73
2018-05-29T03:35:07.635Z,16.57
2018-05-29T03:38:10.103Z,16.80
2018-05-29T03:41:12.554Z,16.87
2018-05-29T03:44:15.791Z,16.83
2018-05-29T03:47:18.271Z,15.80
2018-05-29T03:50:20.733Z,16.13
2018-05-29T03:53:23.202Z,17.07
2018-05-29T03:56:25.669Z,15.80
2018-05-29T03:59:28.156Z,16.83
2018-05-29T04:02:30.626Z,16.23
2018-05-29T04:05:33.846Z,16.17
2018-05-29T04:08:36.314Z,16.47
2018-05-29T04:11:38.788Z,16.20
2018-05-29T04:14:41.257Z,16.37
2018-05-29T04:17:43.739Z,16.53
2018-05-29T04:20:46.178Z,16.73
2018-05-29T04:23:48.646Z,17.73
2018-05-29T04:26:51.085Z,17.43
2018-05-29T04:29:53.554Z,16.63
2018-05-29T04:32:56.018Z,17.17
2018-05-29T04:35:58.470Z,16.30
2018-05-29T04:39:00.943Z,17.10
2018-05-29T04:42:04.153Z,18.33
2018-05-29T04:45:06.610Z,17.70
2018-05-29T04:48:09.108Z,17.73
2018-05-29T04:51:11.557Z,18.10
2018-05-29T04:54:14.781Z,17.43
2018-05-29T04:57:17.238Z,17.70
2018-05-29T05:00:20.454Z,17.67
2018-05-29T05:03:22.911Z,18.23
2018-05-29T05:06:26.129Z,17.33
2018-05-29T05:09:28.585Z,16.57
2018-05-29T05:12:31.811Z,17.67
2018-05-29T05:15:34.264Z,15.37
2018-05-29T05:18:36.727Z,16.40
2018-05-29T05:21:39.945Z,14.93
2018-05-29T05:24:42.402Z,14.63
2018-05-29T05:27:45.621Z,13.07
2018-05-29T05:30:48.090Z,13.67
2018-05-29T05:33:50.573Z,13.90
2018-05-29T05:36:53.034Z,12.23
2018-05-29T05:39:55.505Z,12.03
2018-05-29T05:42:58.739Z,13.10
2018-05-29T05:46:01.219Z,11.90
2018-05-29T05:49:04.417Z,13.47
2018-05-29T05:52:06.878Z,12.40
2018-05-29T05:55:09.341Z,12.27
2018-05-29T05:58:11.811Z,11.97
2018-05-29T06:01:14.279Z,12.50
2018-05-29T06:04:17.503Z,12.00
2018-05-29T06:07:20.038Z,12.83
2018-05-29T06:10:23.461Z,12.07
2018-05-29T06:13:26.070Z,12.23
2018-05-29T06:16:28.529Z,12.60
2018-05-29T06:19:31.001Z,13.17
2018-05-29T06:22:33.461Z,13.90
2018-05-29T06:25:36.693Z,13.07
2018-05-29T06:28:39.165Z,13.80
2018-05-29T06:31:41.638Z,13.37
2018-05-29T06:34:44.090Z,14.70
2018-05-29T06:37:46.542Z,13.27
2018-05-29T06:40:49.001Z,13.03
2018-05-29T06:43:51.458Z,13.33
2018-05-29T06:46:54.165Z,12.97
2018-05-29T06:49:56.633Z,13.43
2018-05-29T06:52:59.101Z,12.23
2018-05-29T06:56:01.566Z,13.10
2018-05-29T06:59:04.041Z,13.43
2018-05-29T07:02:06.477Z,12.90
2018-05-29T07:05:09.705Z,14.20
2018-05-29T07:08:12.169Z,14.30
2018-05-29T07:11:14.617Z,13.87
2018-05-29T07:14:17.854Z,12.43
2018-05-29T07:17:20.305Z,12.43
2018-05-29T07:20:22.765Z,13.05
2018-05-29T07:23:26.004Z,11.80
2018-05-29T07:26:28.718Z,12.57
2018-05-29T07:29:31.177Z,13.40
2018-05-29T07:32:33.638Z,12.27
2018-05-29T07:35:36.098Z,11.52
2018-05-29T07:38:38.582Z,12.37
2018-05-29T07:41:41.029Z,12.87
2018-05-29T07:44:44.254Z,12.17
2018-05-29T07:47:46.724Z,11.37
2018-05-29T07:50:49.187Z,12.47
2018-05-29T07:53:52.422Z,12.47
2018-05-29T07:56:54.874Z,11.90
2018-05-29T07:59:57.344Z,12.87
2018-05-29T08:02:59.797Z,13.17
2018-05-29T08:06:03.043Z,13.53
2018-05-29T08:09:06.287Z,13.07
2018-05-29T08:12:08.731Z,12.53
2018-05-29T08:15:11.181Z,13.03
2018-05-29T08:18:13.650Z,12.60
2018-05-29T08:21:16.120Z,12.73
2018-05-29T08:24:18.586Z,12.43
2018-05-29T08:27:21.829Z,13.07
2018-05-29T08:30:24.289Z,13.23
2018-05-29T08:33:26.753Z,13.07
2018-05-29T08:36:29.226Z,12.77
2018-05-29T08:42:41.353Z,12.60
2018-05-29T08:45:43.895Z,12.97
2018-05-29T08:48:47.125Z,14.30
2018-05-29T08:51:49.604Z,14.33
2018-05-29T08:54:52.059Z,14.27
2018-05-29T08:57:55.282Z,13.17
2018-05-29T09:00:57.758Z,13.40
2018-05-29T09:04:00.262Z,13.47
2018-05-29T09:07:02.675Z,13.77
2018-05-29T09:10:05.925Z,13.37
2018-05-29T09:13:08.390Z,12.70
2018-05-29T09:16:10.854Z,14.57
2018-05-29T09:19:13.322Z,13.80
2018-05-29T09:22:15.774Z,14.20
2018-05-29T09:25:19.002Z,13.57
2018-05-29T09:28:21.606Z,14.70
2018-05-29T09:31:24.070Z,14.83
2018-05-29T09:34:26.548Z,15.07
2018-05-29T09:37:29.016Z,14.90
2018-05-29T09:40:32.216Z,14.33
2018-05-29T09:43:34.665Z,14.70
2018-05-29T09:46:37.138Z,15.87
2018-05-29T09:49:40.359Z,14.53
2018-05-29T09:52:42.806Z,15.10
2018-05-29T09:55:46.031Z,15.07
2018-05-29T09:58:48.490Z,15.23
2018-05-29T10:01:50.941Z,16.30
2018-05-29T10:04:53.401Z,15.63
2018-05-29T10:07:55.862Z,15.87
2018-05-29T10:10:58.316Z,15.77
2018-05-29T10:14:00.789Z,15.87
2018-05-29T10:17:03.261Z,15.80
2018-05-29T10:20:05.721Z,15.30
2018-05-29T10:23:08.177Z,15.87
2018-05-29T10:26:10.643Z,15.63
2018-05-29T10:29:13.102Z,16.03
2018-05-29T10:32:15.562Z,15.77
2018-05-29T10:35:18.026Z,14.80
2018-05-29T10:38:20.481Z,15.47
2018-05-29T10:41:22.954Z,14.67
2018-05-29T10:44:26.181Z,15.50
2018-05-29T10:47:28.642Z,16.23
2018-05-29T10:50:31.106Z,16.40
2018-05-29T10:53:33.554Z,15.67
2018-05-29T10:56:36.019Z,14.93
2018-05-29T10:59:38.473Z,15.63
2018-05-29T11:02:40.942Z,16.47
2018-05-29T11:05:43.409Z,16.13
2018-05-29T11:08:46.761Z,15.17
2018-05-29T11:11:49.226Z,14.90
2018-05-29T11:14:51.692Z,15.10
2018-05-29T11:17:54.149Z,15.67
2018-05-29T11:20:56.614Z,14.93
2018-05-29T11:23:59.065Z,14.80
2018-05-29T11:27:01.521Z,15.50
2018-05-29T11:30:03.986Z,15.90
2018-05-29T11:33:06.446Z,15.27
2018-05-29T11:36:08.911Z,15.60
2018-05-29T11:39:11.362Z,15.50
2018-05-29T11:42:13.813Z,15.77
2018-05-29T11:45:17.045Z,16.33
2018-05-29T11:48:19.510Z,16.60
2018-05-29T11:51:21.966Z,16.70
2018-05-29T11:54:35.881Z,15.93
2018-05-29T11:57:38.330Z,16.17
2018-05-29T12:00:40.854Z,16.63
2018-05-29T12:03:43.253Z,16.13
2018-05-29T12:06:45.713Z,16.50
2018-05-29T12:09:48.943Z,17.63
2018-05-29T12:12:51.415Z,16.70
2018-05-29T12:15:53.882Z,17.60
2018-05-29T12:18:56.337Z,16.50
2018-05-29T12:21:59.562Z,16.13
2018-05-29T12:25:02.034Z,17.20
2018-05-29T12:28:04.490Z,17.23
2018-05-29T12:31:07.751Z,16.07
2018-05-29T12:34:10.313Z,16.33
2018-05-29T12:37:12.774Z,15.70
2018-05-29T12:40:15.272Z,15.53
2018-05-29T12:43:17.698Z,15.63
2018-05-29T12:46:20.941Z,15.37
2018-05-29T12:49:23.370Z,14.17
2018-05-29T12:52:26.605Z,15.00
2018-05-29T12:55:29.062Z,15.10
2018-05-29T12:58:31.517Z,15.10
2018-05-29T13:01:34.758Z,15.33
2018-05-29T13:04:37.214Z,15.47
2018-05-29T13:07:39.689Z,14.87
2018-05-29T13:10:42.195Z,14.37
2018-05-29T13:13:44.626Z,14.60
2018-05-29T13:16:47.125Z,14.77
2018-05-29T13:19:50.325Z,14.90
2018-05-29T13:22:52.785Z,14.93
2018-05-29T13:25:55.262Z,15.43
2018-05-29T13:28:57.711Z,14.77
2018-05-29T13:32:00.949Z,14.87
2018-05-29T13:35:03.425Z,15.27
2018-05-29T13:38:05.878Z,15.30
2018-05-29T13:41:08.337Z,14.80
2018-05-29T13:44:11.570Z,14.87
2018-05-29T13:47:14.042Z,14.83
2018-05-29T13:50:16.499Z,15.27
2018-05-29T13:53:18.953Z,16.13
2018-05-29T13:56:21.422Z,15.83
2018-05-29T13:59:23.866Z,15.93
2018-05-29T14:02:26.323Z,14.90
2018-05-29T14:05:28.777Z,13.87
2018-05-29T14:08:31.989Z,15.07
2018-05-29T14:11:34.450Z,13.97
2018-05-29T14:14:37.692Z,14.90
2018-05-29T14:17:40.142Z,15.23
2018-05-29T14:20:42.642Z,14.63
2018-05-29T14:23:45.065Z,15.40
2018-05-29T14:26:48.298Z,15.23
2018-05-29T14:29:50.742Z,15.63
2018-05-29T14:32:53.969Z,15.50
2018-05-29T14:35:56.427Z,14.73
2018-05-29T14:38:58.881Z,15.47
2018-05-29T14:42:02.106Z,15.10
2018-05-29T14:45:04.569Z,15.17
2018-05-29T14:48:07.037Z,15.87
2018-05-29T14:51:10.261Z,14.93
2018-05-29T14:54:12.734Z,16.10
2018-05-29T14:57:15.193Z,15.27
2018-05-29T15:00:18.415Z,15.77
2018-05-29T15:03:20.881Z,15.17
2018-05-29T15:06:23.353Z,15.63
2018-05-29T15:09:25.814Z,15.70
2018-05-29T15:12:29.049Z,16.00
2018-05-29T15:15:31.502Z,15.63
2018-05-29T15:18:34.011Z,16.17
2018-05-29T15:21:37.190Z,16.07
2018-05-29T15:24:39.674Z,15.37
2018-05-29T15:27:42.109Z,15.57
2018-05-29T15:30:45.341Z,16.43
2018-05-29T15:33:47.800Z,15.70
2018-05-29T15:36:50.262Z,15.83
2018-05-29T15:39:52.714Z,17.27
2018-05-29T15:42:55.174Z,16.87
2018-05-29T15:45:57.660Z,15.77
2018-05-29T15:49:00.125Z,16.70
2018-05-29T15:52:02.599Z,17.07
2018-05-29T15:55:05.061Z,16.63
2018-05-29T15:58:07.529Z,17.20
2018-05-29T16:01:09.998Z,17.07
2018-05-29T16:04:12.450Z,15.97
2018-05-29T16:07:14.909Z,16.33
2018-05-29T16:10:17.366Z,16.27
2018-05-29T16:13:19.826Z,16.67
2018-05-29T16:16:23.265Z,17.43
2018-05-29T16:19:26.498Z,15.90
2018-05-29T16:22:29.001Z,16.90
2018-05-29T16:25:31.465Z,15.67
2018-05-29T16:28:33.940Z,16.73
2018-05-29T16:31:36.397Z,17.10
2018-05-29T16:34:38.860Z,16.93
2018-05-29T16:37:42.070Z,16.53
2018-05-29T16:40:44.556Z,16.37
2018-05-29T16:43:47.751Z,15.87
2018-05-29T16:46:50.217Z,16.97
2018-05-29T16:49:52.669Z,17.00
2018-05-29T16:52:55.893Z,16.13
2018-05-29T16:55:58.350Z,17.43
2018-05-29T16:59:01.571Z,15.87
2018-05-29T17:02:04.037Z,16.37
2018-05-29T17:05:08.418Z,15.53
2018-05-29T17:08:11.830Z,15.73
2018-05-29T17:11:15.064Z,16.20
2018-05-29T17:14:17.509Z,16.77
2018-05-29T17:17:20.739Z,17.53
2018-05-29T17:20:23.197Z,16.70
2018-05-29T17:23:25.661Z,17.50
2018-05-29T17:26:28.891Z,16.80
2018-05-29T17:29:31.350Z,16.00
2018-05-29T17:32:33.813Z,19.43
2018-05-29T17:35:36.302Z,20.13
2018-05-29T17:38:38.761Z,18.30
2018-05-29T17:41:41.986Z,18.10
2018-05-29T17:44:44.449Z,17.17
2018-05-29T17:47:46.918Z,18.97
2018-05-29T17:50:49.375Z,17.37
2018-05-29T17:53:51.825Z,18.20
2018-05-29T17:56:56.277Z,19.03
2018-05-29T17:59:59.502Z,18.77
2018-05-29T18:03:01.963Z,17.70
2018-05-29T18:06:04.414Z,17.97
2018-05-29T18:09:06.912Z,22.50
2018-05-29T18:12:09.357Z,23.57
2018-05-29T18:15:11.795Z,18.20
2018-05-29T18:18:14.262Z,18.10
2018-05-29T18:21:16.738Z,18.17
2018-05-29T18:24:19.188Z,19.00
2018-05-29T18:27:22.414Z,20.13
2018-05-29T18:30:24.861Z,19.97
2018-05-29T18:33:28.106Z,21.17
2018-05-29T18:36:30.569Z,21.17
2018-05-29T18:39:33.023Z,19.70
2018-05-29T18:42:35.477Z,20.23
2018-05-29T18:45:38.702Z,20.13
2018-05-29T18:48:41.157Z,19.70
2018-05-29T18:51:44.398Z,21.10
2018-05-29T18:54:46.849Z,20.10
2018-05-29T18:57:49.302Z,29.70
2018-05-29T19:00:51.765Z,37.73
2018-05-29T19:03:54.223Z,22.53
2018-05-29T19:06:56.693Z,21.27
2018-05-29T19:09:59.142Z,19.93
2018-05-29T19:13:01.606Z,22.67
2018-05-29T19:16:04.061Z,23.27
2018-05-29T19:19:07.294Z,21.87
2018-05-29T19:22:09.757Z,22.13
2018-05-29T19:25:12.216Z,23.60
2018-05-29T19:28:15.445Z,13.93
2018-05-29T19:31:17.907Z,10.23
2018-05-29T19:34:20.370Z,9.50
2018-05-29T19:37:22.822Z,8.60
2018-05-29T19:40:43.693Z,8.97
2018-05-29T19:43:46.153Z,8.57
2018-05-29T19:46:48.591Z,9.53
2018-05-29T19:49:51.814Z,9.07
2018-05-29T19:52:54.274Z,9.57
2018-05-29T19:55:57.485Z,9.07
2018-05-29T19:58:59.946Z,8.53
2018-05-29T20:02:03.164Z,9.67
2018-05-29T20:05:05.630Z,9.27
2018-05-29T20:08:16.030Z,8.53
2018-05-29T20:11:25.161Z,8.53
2018-05-29T20:14:27.622Z,6.87
2018-05-29T20:17:30.986Z,6.77
2018-05-29T20:20:34.192Z,6.53
2018-05-29T20:23:50.802Z,5.90
2018-05-29T20:26:53.245Z,6.43
2018-05-29T20:29:55.697Z,8.47
2018-05-29T20:32:58.166Z,7.80
2018-05-29T20:36:00.634Z,7.80
2018-05-29T20:39:03.113Z,8.37
2018-05-29T20:42:05.569Z,7.93
2018-05-29T20:45:08.029Z,7.93
2018-05-29T20:48:10.490Z,8.33
2018-05-29T20:51:13.718Z,8.53
2018-05-29T20:54:16.174Z,11.57
2018-05-29T20:57:25.281Z,10.93
2018-05-29T21:00:27.754Z,10.03
2018-05-29T21:03:30.877Z,10.27
2018-05-29T21:06:33.334Z,11.07
2018-05-29T21:09:35.803Z,11.37
2018-05-29T21:12:38.257Z,11.53
2018-05-29T21:15:40.722Z,11.77
2018-05-29T21:18:43.186Z,12.40
2018-05-29T21:21:45.956Z,10.97
2018-05-29T21:24:53.423Z,10.57
2018-05-29T21:27:55.887Z,11.70
2018-05-29T21:30:58.338Z,12.60
2018-05-29T21:34:00.790Z,12.23
2018-05-29T21:37:03.245Z,12.70
2018-05-29T21:40:06.473Z,11.50
2018-05-29T21:43:08.937Z,11.77
2018-05-29T21:46:11.392Z,11.07
2018-05-29T21:49:14.614Z,11.10
2018-05-29T21:52:17.082Z,12.00
2018-05-29T21:55:19.530Z,11.27
2018-05-29T21:58:22.757Z,11.20
2018-05-29T22:01:25.230Z,10.93
2018-05-29T22:04:27.685Z,10.33
2018-05-29T22:07:30.913Z,11.23
2018-05-29T22:10:33.375Z,10.17
2018-05-29T22:13:35.833Z,11.50
2018-05-29T22:16:39.045Z,10.37
2018-05-29T22:19:41.502Z,9.60
2018-05-29T22:22:44.725Z,9.13
2018-05-29T22:25:47.191Z,8.03
2018-05-29T22:28:49.671Z,9.60
2018-05-29T22:31:52.122Z,9.33
2018-05-29T22:34:55.362Z,10.03
2018-05-29T22:37:57.817Z,10.27
2018-05-29T22:41:00.282Z,9.20
2018-05-29T22:44:02.742Z,9.40
2018-05-29T22:47:05.973Z,10.63
2018-05-29T22:50:08.434Z,10.17
2018-05-29T22:53:10.885Z,10.97
2018-05-29T22:56:13.345Z,11.30
2018-05-29T22:59:15.824Z,10.60
2018-05-29T23:02:18.271Z,11.53
2018-05-29T23:05:20.733Z,11.57
2018-05-29T23:08:23.205Z,10.77
2018-05-29T23:11:27.672Z,10.20
2018-05-29T23:14:30.155Z,10.57
2018-05-29T23:17:32.634Z,11.30
2018-05-29T23:20:35.075Z,10.90
2018-05-29T23:23:37.544Z,10.40
2018-05-29T23:26:39.990Z,10.77
2018-05-29T23:29:42.446Z,9.93
2018-05-29T23:32:44.895Z,9.47
2018-05-29T23:35:47.366Z,10.33
2018-05-29T23:38:50.203Z,11.43
2018-05-29T23:41:52.650Z,10.70
2018-05-29T23:44:55.125Z,12.43
2018-05-29T23:47:57.589Z,11.40
2018-05-29T23:51:00.037Z,11.80
2018-05-29T23:54:02.547Z,16.97
2018-05-29T23:57:05.044Z,17.13
